Time;durP1;ratioP1;P1;durP2;ratioP2;P2;SDS_P1;SDS_P2;PMS_P1;PMS_P2;Temp;Humidity;BMP_temperature;BMP_pressure;BME280_temperature;BME280_humidity;BME280_pressure;Samples;Min_cycle;Max_cycle;Signal;HPM_P1;HPM_P2
2021/03/29 00:04:34;;;;;;;6.90;3.67;;;;;;;7.76;68.65;100020.59;5879222;23;105150;31
2021/03/29 00:07:41;;;;;;;6.93;3.60;;;;;;;7.67;68.59;100028.84;5853640;23;104998;31
2021/03/29 00:10:33;;;;;;;6.40;2.97;;;;;;;7.62;68.98;100023.78;5851423;23;105603;31
2021/03/29 00:22:38;;;;;;;8.57;4.53;;;;;;;8.05;67.33;100017.66;4802786;29;101848;-84
2021/03/29 00:25:26;;;;;;;5.87;3.40;;;;;;;8.21;66.71;100026.63;4805529;29;101704;-84
2021/03/29 00:27:55;;;;;;;6.10;2.83;;;;;;;8.31;66.24;100020.06;4806047;29;102155;-84
2021/03/29 00:33:37;;;;;;;6.60;4.10;;;;;;;8.34;66.36;100032.25;5797331;23;104279;31
2021/03/29 00:49:30;;;;;;;9.40;4.20;;;;;;;8.29;66.84;100032.44;5876154;23;104297;31
2021/03/29 00:58:28;;;;;;;6.70;3.77;;;;;;;8.14;67.34;100035.69;5931059;23;104311;31
2021/03/29 01:01:21;;;;;;;5.37;3.80;;;;;;;7.92;68.23;100040.97;5913748;23;104901;31
2021/03/29 01:07:32;;;;;;;8.37;4.60;;;;;;;7.73;69.50;100033.88;5333579;23;104324;31
2021/03/29 01:10:33;;;;;;;9.40;4.60;;;;;;;7.45;70.39;100039.38;5956529;23;104276;31
2021/03/29 01:13:06;;;;;;;8.50;4.90;;;;;;;7.63;68.91;100032.53;4851891;28;103037;-85
2021/03/29 01:15:36;;;;;;;6.20;3.60;;;;;;;7.68;68.67;100036.69;4806673;29;102781;-84
2021/03/29 01:18:16;;;;;;;5.60;3.67;;;;;;;7.86;67.56;100029.88;4823472;29;102502;-87
2021/03/29 01:21:55;;;;;;;6.00;3.73;;;;;;;7.94;67.44;100030.41;4823554;29;101583;-84
2021/03/29 01:27:43;;;;;;;5.47;3.17;;;;;;;7.81;67.78;100034.44;4724620;29;105703;-86
2021/03/29 01:30:20;;;;;;;6.53;3.43;;;;;;;7.70;68.03;100042.75;4761263;29;102576;-85
2021/03/29 01:32:54;;;;;;;4.83;2.97;;;;;;;7.81;67.37;100048.44;5877854;23;104822;31
2021/03/29 01:35:52;;;;;;;8.80;4.27;;;;;;;7.55;68.96;100038.94;5941813;23;104333;31
2021/03/29 01:38:21;;;;;;;10.30;4.43;;;;;;;7.30;70.08;100045.19;4821318;29;102948;-84
2021/03/29 01:40:48;;;;;;;7.37;4.00;;;;;;;7.34;69.50;100041.56;4822902;29;102150;-85
2021/03/29 01:43:18;;;;;;;6.67;3.87;;;;;;;7.39;69.01;100040.47;4818144;29;101511;-85
2021/03/29 01:46:22;;;;;;;6.80;4.20;;;;;;;7.33;70.03;100050.34;4817805;29;101746;-86
2021/03/29 01:48:50;;;;;;;7.73;4.10;;;;;;;7.29;69.78;100049.63;4808354;29;102310;-85
2021/03/29 01:51:18;;;;;;;5.63;3.30;;;;;;;7.26;70.13;100049.75;4793901;29;102001;-86
2021/03/29 01:53:46;;;;;;;9.37;4.50;;;;;;;7.17;70.86;100044.81;4808867;29;101590;-86
2021/03/29 01:56:14;;;;;;;6.63;3.60;;;;;;;7.09;71.25;100051.28;4809357;29;101847;-87
2021/03/29 01:58:42;;;;;;;5.50;4.30;;;;;;;6.96;71.00;100046.47;4808860;29;102942;-86
2021/03/29 02:01:11;;;;;;;6.60;3.60;;;;;;;7.18;70.47;100054.44;4810181;29;102034;-88
2021/03/29 02:03:40;;;;;;;6.00;4.13;;;;;;;7.29;69.94;100049.63;4800703;29;101702;-86
2021/03/29 02:06:08;;;;;;;4.63;3.33;;;;;;;7.17;69.81;100055.34;4825493;29;101903;-86
2021/03/29 02:08:38;;;;;;;8.33;3.73;;;;;;;7.36;69.23;100056.34;4824247;29;102330;-85
2021/03/29 02:11:06;;;;;;;6.47;3.97;;;;;;;7.38;69.25;100054.50;4806788;29;102455;-89
2021/03/29 02:13:36;;;;;;;5.47;2.93;;;;;;;7.46;68.65;100054.25;4807134;29;101621;-86
2021/03/29 02:16:06;;;;;;;5.33;3.93;;;;;;;7.40;69.00;100057.09;4805368;29;101795;-85
2021/03/29 02:18:39;;;;;;;4.70;3.40;;;;;;;7.39;69.05;100055.38;4805890;29;102086;-86
2021/03/29 02:21:08;;;;;;;6.17;3.90;;;;;;;7.36;69.00;100048.47;4805537;29;102639;-86
2021/03/29 02:23:36;;;;;;;4.83;3.27;;;;;;;7.40;69.03;100052.69;4805905;29;101616;-88
2021/03/29 02:26:05;;;;;;;5.43;3.00;;;;;;;7.38;68.82;100054.50;4806873;29;101795;-86
2021/03/29 02:28:33;;;;;;;7.30;4.00;;;;;;;7.34;69.28;100058.19;4805735;29;102232;-83
2021/03/29 02:31:01;;;;;;;5.60;3.93;;;;;;;7.30;69.06;100051.31;4806108;29;104606;-86
2021/03/29 02:33:32;;;;;;;9.67;3.73;;;;;;;7.29;69.40;100047.00;4806740;29;101562;-87
2021/03/29 02:35:59;;;;;;;6.47;3.07;;;;;;;7.33;68.87;100052.97;4807173;29;101837;-84
2021/03/29 02:38:27;;;;;;;3.40;3.00;;;;;;;7.27;69.71;100046.19;4808138;29;102091;-86
2021/03/29 02:40:55;;;;;;;6.67;4.47;;;;;;;6.98;70.57;100054.31;4791010;29;104656;-86
2021/03/29 02:43:24;;;;;;;5.13;3.53;;;;;;;7.12;69.78;100059.91;4806574;29;102163;-89
2021/03/29 02:45:55;;;;;;;5.17;2.97;;;;;;;7.08;70.08;100054.81;4789431;29;101872;-86
2021/03/29 02:48:24;;;;;;;4.30;3.37;;;;;;;7.21;69.12;100059.56;4804519;29;103361;-86
2021/03/29 02:50:56;;;;;;;7.27;4.87;;;;;;;7.06;70.55;100052.25;4803047;29;102305;-89
2021/03/29 02:53:26;;;;;;;6.27;4.63;;;;;;;6.88;71.21;100060.78;4804455;29;101618;-89
2021/03/29 02:55:54;;;;;;;4.30;3.17;;;;;;;6.88;70.99;100055.53;4804468;29;101841;-86
2021/03/29 02:58:24;;;;;;;4.30;3.10;;;;;;;6.87;70.73;100056.47;4803633;29;103019;-90
2021/03/29 03:00:52;;;;;;;5.53;3.33;;;;;;;6.78;71.56;100067.28;4803895;29;102591;-87
2021/03/29 03:03:19;;;;;;;7.43;3.80;;;;;;;6.85;70.67;100066.16;4804279;29;101608;-87
2021/03/29 03:05:47;;;;;;;3.40;2.80;;;;;;;6.81;70.89;100068.03;4803209;29;102732;-88
2021/03/29 03:08:16;;;;;;;8.40;3.67;;;;;;;6.82;71.16;100068.91;4786553;29;102450;-88
2021/03/29 03:10:44;;;;;;;5.83;3.87;;;;;;;6.78;70.93;100067.28;4803271;29;102440;-92
2021/03/29 03:13:12;;;;;;;5.23;3.30;;;;;;;6.78;70.90;100073.41;4802718;29;101678;-91
2021/03/29 03:15:40;;;;;;;10.03;4.57;;;;;;;6.71;71.42;100081.56;4786896;29;101861;-88
2021/03/29 03:18:10;;;;;;;5.87;4.33;;;;;;;6.47;73.24;100077.13;4803227;29;102694;-90
2021/03/29 03:20:39;;;;;;;8.73;4.70;;;;;;;6.43;73.37;100083.41;4802383;29;102749;-89
2021/03/29 03:23:14;;;;;;;8.23;4.63;;;;;;;6.32;73.87;100079.38;4785340;29;101688;-90
2021/03/29 03:25:44;;;;;;;5.00;3.67;;;;;;;6.43;72.98;100082.50;4801098;29;101782;-90
2021/03/29 03:28:14;;;;;;;5.23;3.73;;;;;;;6.52;72.81;100083.09;4803457;29;102220;-87
2021/03/29 03:30:43;;;;;;;6.70;4.83;;;;;;;6.44;73.06;100080.72;4805075;29;103285;-89
2021/03/29 03:33:13;;;;;;;7.20;4.07;;;;;;;6.33;73.44;100082.84;4805563;29;102324;-89
2021/03/29 03:35:42;;;;;;;7.30;3.90;;;;;;;6.36;73.08;100080.13;4805366;29;101832;-91
2021/03/29 03:38:12;;;;;;;9.13;5.07;;;;;;;6.47;72.58;100072.75;4788557;29;103870;-89
2021/03/29 03:40:41;;;;;;;6.90;3.70;;;;;;;6.53;72.64;100084.81;4804403;29;102534;-91
2021/03/29 03:43:11;;;;;;;7.17;4.60;;;;;;;6.39;72.91;100086.16;4804380;29;101668;-90
2021/03/29 03:45:44;;;;;;;5.53;4.43;;;;;;;6.40;72.56;100082.59;4805116;29;101770;-88
2021/03/29 03:48:13;;;;;;;6.50;4.27;;;;;;;6.43;72.74;100086.06;4803550;29;102965;-88
2021/03/29 03:50:41;;;;;;;9.83;4.53;;;;;;;6.36;72.94;100090.63;4804135;29;102491;-92
2021/03/29 03:53:08;;;;;;;7.03;4.93;;;;;;;6.18;73.92;100092.09;4804238;29;101598;-92
2021/03/29 03:55:37;;;;;;;11.73;4.70;;;;;;;6.18;73.95;100099.09;4804721;29;101629;-90
2021/03/29 03:58:04;;;;;;;9.67;4.20;;;;;;;6.25;73.71;100096.25;4803806;29;102593;-90
2021/03/29 04:00:35;;;;;;;8.23;4.83;;;;;;;6.29;73.34;100089.97;4804067;29;101961;-91
2021/03/29 04:03:02;;;;;;;6.70;4.30;;;;;;;6.29;73.97;100094.34;4804844;29;101627;-89
2021/03/29 04:05:30;;;;;;;7.03;4.00;;;;;;;6.33;73.62;100093.34;4791037;29;101804;-92
2021/03/29 04:08:19;;;;;;;10.03;4.70;;;;;;;6.14;74.39;100095.75;4802605;29;103377;-79
2021/03/29 04:10:47;;;;;;;7.40;3.87;;;;;;;6.14;74.64;100095.75;4800067;29;103803;-78
2021/03/29 04:13:17;;;;;;;7.07;3.73;;;;;;;6.25;73.88;100098.00;4801261;29;102618;-79
2021/03/29 04:15:49;;;;;;;6.63;4.10;;;;;;;6.33;73.51;100099.47;4794189;29;102908;-81
2021/03/29 04:18:16;;;;;;;7.77;4.70;;;;;;;6.43;73.65;100107.88;4803031;29;103599;-82
2021/03/29 04:20:43;;;;;;;6.53;4.17;;;;;;;6.46;73.60;100106.94;4801339;29;102735;-78
2021/03/29 04:23:12;;;;;;;7.13;4.10;;;;;;;6.47;73.63;100113.91;4802299;29;102609;-78
2021/03/29 04:25:39;;;;;;;5.77;3.73;;;;;;;6.47;73.40;100098.16;4801252;29;102769;-83
2021/03/29 04:28:07;;;;;;;4.30;3.30;;;;;;;6.61;72.98;100104.66;4801047;29;103235;-79
2021/03/29 04:30:34;;;;;;;7.10;3.83;;;;;;;6.72;72.56;100106.91;4800950;29;104215;-78
2021/03/29 04:33:02;;;;;;;5.03;3.33;;;;;;;6.82;71.87;100111.78;4783995;29;103391;-79
2021/03/29 04:35:30;;;;;;;5.73;3.50;;;;;;;6.87;71.50;100111.63;4800382;29;102784;-79
2021/03/29 04:37:57;;;;;;;4.17;2.73;;;;;;;6.90;72.09;100114.16;4781781;29;106541;-78
2021/03/29 04:40:26;;;;;;;7.67;3.50;;;;;;;6.94;71.62;100113.97;4803183;29;105694;-81
2021/03/29 04:42:54;;;;;;;5.53;3.80;;;;;;;6.90;71.46;100114.16;4802123;29;102599;-82
2021/03/29 04:45:22;;;;;;;7.70;4.63;;;;;;;6.83;71.79;100112.63;4788431;29;102520;-80
2021/03/29 04:47:50;;;;;;;8.97;3.93;;;;;;;6.84;71.61;100111.75;4799823;29;104308;-83
2021/03/29 04:50:21;;;;;;;8.43;4.10;;;;;;;6.81;71.89;100117.09;4812337;29;104099;-80
2021/03/29 04:52:49;;;;;;;5.83;3.47;;;;;;;6.92;71.30;100128.09;4794303;29;102595;-83
2021/03/29 04:55:17;;;;;;;4.73;3.47;;;;;;;6.93;71.86;100114.06;4799433;29;102563;-81
2021/03/29 04:57:44;;;;;;;5.03;3.70;;;;;;;7.00;71.81;100126.03;4798792;29;103954;-79
2021/03/29 05:00:14;;;;;;;4.77;3.50;;;;;;;6.98;71.68;100120.84;4789527;29;102893;-80
2021/03/29 05:05:41;;;;;;;5.10;3.60;;;;;;;6.99;71.79;100119.06;4863485;23;102372;-86
2021/03/29 05:08:08;;;;;;;5.13;3.43;;;;;;;7.00;71.11;100126.91;4859612;28;103859;-81
2021/03/29 05:10:39;;;;;;;8.10;4.00;;;;;;;7.03;70.69;100123.31;4859120;28;103200;-89
2021/03/29 05:13:07;;;;;;;5.30;3.63;;;;;;;7.04;71.40;100122.41;4848159;29;103109;-90
2021/03/29 05:15:36;;;;;;;8.63;4.50;;;;;;;7.05;70.09;100129.38;4852055;29;102605;-87
2021/03/29 05:18:10;;;;;;;7.20;4.27;;;;;;;7.09;70.17;100136.25;4828675;29;102863;-90
2021/03/29 05:20:37;;;;;;;5.37;3.70;;;;;;;7.11;69.99;100123.03;4861698;29;103321;-93
2021/03/29 05:23:05;;;;;;;5.67;3.33;;;;;;;7.19;70.47;100132.34;4848932;29;101816;-91
2021/03/29 05:28:56;;;;;;;6.47;4.00;;;;;;;7.27;69.44;100135.56;4894386;23;104259;31
2021/03/29 05:31:54;;;;;;;6.00;3.90;;;;;;;7.27;70.27;100129.47;5066415;23;103698;31
2021/03/29 05:34:27;;;;;;;5.93;3.50;;;;;;;7.37;69.59;100128.22;4898432;23;102572;-88
2021/03/29 05:36:57;;;;;;;5.63;3.70;;;;;;;7.43;69.58;100136.75;4800961;29;101768;-86
2021/03/29 05:39:26;;;;;;;5.80;3.30;;;;;;;7.48;69.31;100140.06;4798991;29;102882;-86
2021/03/29 05:41:53;;;;;;;5.23;3.80;;;;;;;7.54;69.43;100145.09;4802272;29;103384;-79
2021/03/29 05:44:20;;;;;;;3.63;2.87;;;;;;;7.58;69.36;100135.28;4790553;29;102904;-77
2021/03/29 05:46:48;;;;;;;5.17;2.90;;;;;;;7.63;68.87;100143.03;4788307;29;103176;-77
2021/03/29 05:49:15;;;;;;;4.20;2.93;;;;;;;7.66;68.87;100145.53;4820267;29;104604;-77
2021/03/29 05:51:42;;;;;;;5.10;3.70;;;;;;;7.67;68.89;100139.34;4796969;29;105430;-75
2021/03/29 05:54:09;;;;;;;5.30;3.83;;;;;;;7.64;68.75;100134.19;4809277;29;103147;-75
2021/03/29 05:56:39;;;;;;;4.57;2.80;;;;;;;7.72;68.43;100145.31;4799514;29;103055;-77
2021/03/29 05:59:08;;;;;;;3.93;3.03;;;;;;;7.69;68.38;100143.63;4804602;29;104501;-75
2021/03/29 06:01:43;;;;;;;11.03;7.70;;;;;;;7.57;68.85;100141.47;4799408;29;105090;-74
2021/03/29 06:04:11;;;;;;;7.57;4.77;;;;;;;7.75;67.91;100142.56;4788204;29;103267;-75
2021/03/29 06:06:38;;;;;;;9.23;4.07;;;;;;;7.69;67.94;100153.31;4805140;29;103002;-76
2021/03/29 06:09:07;;;;;;;5.40;3.83;;;;;;;7.77;67.61;100156.50;4804674;29;104378;-75
2021/03/29 06:11:36;;;;;;;5.70;3.83;;;;;;;7.83;67.43;100146.59;4805013;29;104442;-74
2021/03/29 06:14:22;;;;;;;5.73;3.40;;;;;;;7.91;66.89;100160.34;4808314;29;103139;-76
2021/03/29 06:17:00;;;;;;;6.17;3.47;;;;;;;7.92;67.38;100166.44;4807636;29;102976;-81
2021/03/29 06:19:40;;;;;;;3.77;3.00;;;;;;;8.07;66.62;100171.13;4804742;29;106078;-88
2021/03/29 06:22:09;;;;;;;4.13;2.87;;;;;;;8.11;66.83;100180.63;4780561;29;102927;-77
2021/03/29 06:25:07;;;;;;;6.17;3.20;;;;;;;8.37;66.79;100176.97;4789841;29;103328;-78
2021/03/29 06:27:40;;;;;;;5.00;2.80;;;;;;;8.33;66.26;100184.16;4765635;29;103075;-78
2021/03/29 06:30:21;;;;;;;8.03;3.80;;;;;;;8.31;65.49;100185.13;4770738;29;104321;-77
2021/03/29 06:32:57;;;;;;;6.40;3.80;;;;;;;8.39;66.09;100185.69;4771469;29;103948;-78
2021/03/29 06:35:27;;;;;;;6.30;3.30;;;;;;;8.55;65.45;100179.72;4798398;29;103148;-78
2021/03/29 06:38:13;;;;;;;5.40;3.93;;;;;;;8.51;65.76;100186.03;4817497;29;103061;-78
2021/03/29 06:40:44;;;;;;;8.20;4.93;;;;;;;8.37;66.24;100200.66;4800533;29;104809;-78
2021/03/29 06:43:23;;;;;;;6.53;3.40;;;;;;;8.64;65.68;100199.56;4802474;29;103672;-78
2021/03/29 06:45:53;;;;;;;8.70;3.40;;;;;;;8.74;66.03;100206.19;4787712;29;103346;-77
2021/03/29 06:48:23;;;;;;;7.87;4.27;;;;;;;8.74;65.01;100207.03;4801232;29;103179;-79
2021/03/29 06:51:08;;;;;;;9.13;4.27;;;;;;;8.83;65.32;100211.06;4803940;29;103907;-79
2021/03/29 06:53:36;;;;;;;7.27;4.53;;;;;;;8.97;64.39;100202.59;4803127;29;104895;-78
2021/03/29 06:56:21;;;;;;;7.03;4.10;;;;;;;9.04;64.35;100209.34;4794873;29;103208;-79
2021/03/29 06:58:48;;;;;;;8.30;4.60;;;;;;;9.01;64.09;100196.28;4788211;29;102986;-79
2021/03/29 07:01:19;;;;;;;8.63;4.50;;;;;;;9.38;63.19;100209.56;4792460;29;103360;-79
2021/03/29 07:03:47;;;;;;;6.03;3.90;;;;;;;9.54;62.77;100210.63;4808093;29;104999;-79
2021/03/29 07:06:16;;;;;;;7.43;4.30;;;;;;;9.42;62.55;100199.75;4809993;29;102878;-78
2021/03/29 07:08:45;;;;;;;6.67;4.13;;;;;;;9.56;62.27;100210.53;4800118;29;103310;-78
2021/03/29 07:11:14;;;;;;;9.47;4.53;;;;;;;10.01;61.20;100216.38;4805172;29;103517;-78
2021/03/29 07:13:43;;;;;;;10.10;4.30;;;;;;;10.04;61.05;100203.03;4807801;29;103802;-78
2021/03/29 07:16:11;;;;;;;8.10;4.97;;;;;;;9.96;60.23;100205.19;4807488;29;103136;-78
2021/03/29 07:18:41;;;;;;;8.60;4.77;;;;;;;10.10;60.47;100204.53;4808181;29;104208;-79
2021/03/29 07:21:11;;;;;;;6.63;3.60;;;;;;;10.12;60.26;100202.69;4813521;29;102731;-77
2021/03/29 07:23:40;;;;;;;7.60;4.67;;;;;;;10.55;59.64;100202.38;4804704;29;105320;-77
2021/03/29 07:26:23;;;;;;;6.97;3.53;;;;;;;10.67;58.50;100212.34;4805130;29;105356;-77
2021/03/29 07:28:55;;;;;;;7.40;4.23;;;;;;;10.53;58.52;100198.94;4783220;29;102962;-78
2021/03/29 07:31:36;;;;;;;6.97;3.70;;;;;;;10.29;57.70;100200.13;4791254;29;106654;-78
2021/03/29 07:34:05;;;;;;;6.17;3.60;;;;;;;10.55;58.16;100207.69;4812691;29;106835;-77
2021/03/29 07:36:40;;;;;;;6.93;3.50;;;;;;;10.70;57.37;100211.34;4805047;29;103040;-78
2021/03/29 07:39:08;;;;;;;7.73;3.70;;;;;;;10.75;57.54;100212.81;4808381;29;103058;-77
2021/03/29 07:41:36;;;;;;;8.13;4.00;;;;;;;10.81;57.52;100215.16;4786177;29;104841;-77
2021/03/29 07:44:15;;;;;;;7.37;4.03;;;;;;;10.94;57.42;100216.28;4798806;29;104352;-78
2021/03/29 07:46:47;;;;;;;9.17;3.80;;;;;;;10.95;56.83;100222.41;4811164;29;103377;-77
2021/03/29 07:49:44;;;;;;;7.07;4.20;;;;;;;11.08;56.94;100220.88;4807295;29;103473;-78
2021/03/29 07:52:28;;;;;;;13.10;4.37;;;;;;;11.36;55.94;100222.97;4803136;29;105507;-78
2021/03/29 07:54:57;;;;;;;9.70;3.97;;;;;;;11.31;56.21;100222.34;4808407;29;104313;-77
2021/03/29 07:58:07;;;;;;;7.87;3.87;;;;;;;11.56;56.04;100225.44;4806016;29;103497;-78
2021/03/29 08:00:55;;;;;;;7.27;4.00;;;;;;;11.76;55.17;100219.97;4807543;29;103814;-77
2021/03/29 08:03:43;;;;;;;6.60;3.80;;;;;;;12.17;54.32;100223.91;4776127;29;109252;-78
2021/03/29 08:06:43;;;;;;;6.53;4.17;;;;;;;13.25;52.49;100221.19;4804515;29;103923;-78
2021/03/29 08:09:14;;;;;;;8.30;3.90;;;;;;;14.03;50.75;100225.28;4789458;29;103514;-78
2021/03/29 08:11:56;;;;;;;8.03;3.83;;;;;;;13.93;50.75;100229.44;4807227;29;103143;-78
2021/03/29 08:14:30;;;;;;;6.80;3.70;;;;;;;14.04;51.25;100219.00;4800988;29;104828;-78
2021/03/29 08:16:57;;;;;;;11.80;4.27;;;;;;;14.15;50.84;100224.50;4809066;29;111367;-78
2021/03/29 08:19:25;;;;;;;4.63;3.67;;;;;;;14.47;49.17;100217.16;4805987;29;103548;-78
2021/03/29 08:21:54;;;;;;;6.97;4.50;;;;;;;14.63;48.94;100222.34;4819288;29;103673;-78
2021/03/29 08:24:25;;;;;;;4.90;3.63;;;;;;;15.24;48.89;100222.63;4805069;29;104087;-77
2021/03/29 08:26:54;;;;;;;8.63;4.23;;;;;;;14.90;48.09;100218.75;4808995;29;103713;-78
2021/03/29 08:29:31;;;;;;;12.33;5.07;;;;;;;15.00;48.04;100224.28;4810677;29;103192;-78
2021/03/29 08:32:16;;;;;;;9.27;4.80;;;;;;;15.96;47.68;100211.41;4802013;29;104705;-79
2021/03/29 08:34:56;;;;;;;6.63;4.47;;;;;;;16.15;47.02;100218.94;4811070;29;104093;-78
2021/03/29 08:37:25;;;;;;;11.80;5.57;;;;;;;16.36;45.44;100220.09;4792962;29;104398;-79
2021/03/29 08:39:55;;;;;;;8.43;4.23;;;;;;;16.67;44.41;100221.41;4801188;29;103283;-79
2021/03/29 08:42:25;;;;;;;7.80;3.83;;;;;;;17.14;44.32;100223.19;4804994;29;103463;-78
2021/03/29 08:44:53;;;;;;;6.50;3.93;;;;;;;17.79;43.92;100220.84;4805640;29;111431;-78
2021/03/29 08:47:22;;;;;;;6.33;4.00;;;;;;;17.78;42.55;100225.34;4805716;29;104654;-78
2021/03/29 08:49:52;;;;;;;8.70;4.27;;;;;;;17.81;43.76;100225.09;4804862;29;103281;-78
2021/03/29 08:52:20;;;;;;;8.10;4.00;;;;;;;16.80;44.05;100225.72;4793179;29;103480;-78
2021/03/29 08:54:54;;;;;;;6.30;3.37;;;;;;;17.17;43.95;100231.00;4815860;29;103919;-79
2021/03/29 08:57:25;;;;;;;3.67;3.23;;;;;;;16.99;45.04;100219.00;4793910;29;104112;-79
2021/03/29 08:59:58;;;;;;;9.93;3.47;;;;;;;17.26;44.23;100223.09;4804067;29;103510;-78
2021/03/29 09:02:26;;;;;;;6.03;3.10;;;;;;;17.11;44.69;100223.44;4966211;23;105415;-78
2021/03/29 09:05:00;;;;;;;10.20;3.60;;;;;;;17.34;43.83;100230.56;4820581;29;104161;-79
2021/03/29 09:07:30;;;;;;;11.00;4.40;;;;;;;16.91;44.20;100224.94;4817454;29;104138;-77
2021/03/29 09:09:59;;;;;;;9.30;4.20;;;;;;;17.14;43.42;100224.06;4809281;29;103404;-77
2021/03/29 09:12:29;;;;;;;8.53;4.10;;;;;;;17.46;43.20;100224.25;4821518;29;103540;-77
2021/03/29 09:14:57;;;;;;;6.40;3.87;;;;;;;18.17;42.82;100221.34;4829162;29;103229;-77
2021/03/29 09:17:30;;;;;;;12.03;4.20;;;;;;;18.26;41.56;100217.06;4820016;29;104819;-76
2021/03/29 09:20:01;;;;;;;6.53;3.53;;;;;;;18.48;40.93;100225.09;4813900;29;103844;-76
2021/03/29 09:22:31;;;;;;;6.43;3.55;;;;;;;18.81;40.43;100214.31;4830344;29;102539;-77
2021/03/29 09:25:07;;;;;;;7.63;3.65;;;;;;;19.26;40.69;100211.44;4827308;29;105526;-76
2021/03/29 09:27:38;;;;;;;5.03;3.08;;;;;;;19.03;41.54;100214.22;4822482;29;103448;-77
2021/03/29 09:30:09;;;;;;;5.20;3.20;;;;;;;19.27;40.11;100218.53;4827179;29;103401;-77
2021/03/29 09:32:40;;;;;;;8.40;3.17;;;;;;;18.43;38.25;100221.94;4813643;29;102687;-77
2021/03/29 09:35:08;;;;;;;8.00;2.85;;;;;;;18.79;39.05;100224.31;4828261;29;104076;-77
2021/03/29 09:37:45;;;;;;;6.05;3.17;;;;;;;19.63;39.55;100218.94;4829466;29;103700;-77
2021/03/29 09:40:13;;;;;;;6.28;3.33;;;;;;;19.53;39.35;100225.25;4826079;29;103670;-77
2021/03/29 09:42:43;;;;;;;6.13;3.08;;;;;;;19.57;39.32;100224.84;4818967;29;103448;-77
2021/03/29 09:45:12;;;;;;;7.35;3.38;;;;;;;20.14;38.17;100216.25;4808825;29;106156;-77
2021/03/29 09:47:40;;;;;;;4.65;2.45;;;;;;;20.45;36.86;100217.09;4830253;29;104032;-76
2021/03/29 09:50:09;;;;;;;6.97;2.75;;;;;;;20.31;38.21;100216.63;4829643;29;103050;-80
2021/03/29 09:52:40;;;;;;;9.48;3.67;;;;;;;18.30;38.91;100226.56;4819902;29;103453;-77
2021/03/29 09:55:12;;;;;;;5.90;3.00;;;;;;;19.47;38.28;100218.56;4829431;29;105449;-77
2021/03/29 09:57:43;;;;;;;7.95;3.00;;;;;;;19.10;37.65;100225.28;4825234;29;104944;-78
2021/03/29 10:00:16;;;;;;;6.72;3.08;;;;;;;19.16;38.57;100226.59;4825299;29;103120;-77
2021/03/29 10:02:45;;;;;;;6.18;2.40;;;;;;;20.05;38.17;100222.41;4827904;29;103197;-78
2021/03/29 10:05:17;;;;;;;3.97;2.20;;;;;;;20.69;36.04;100224.75;4831302;29;103954;-78
2021/03/29 10:07:53;;;;;;;4.03;2.20;;;;;;;20.56;35.40;100221.50;4828084;29;103270;-78
2021/03/29 10:10:25;;;;;;;3.20;2.05;;;;;;;20.91;33.65;100215.63;4821992;29;102833;-81
2021/03/29 10:13:05;;;;;;;3.75;1.70;;;;;;;21.11;33.56;100212.81;4829459;29;103370;-78
2021/03/29 10:15:34;;;;;;;4.15;1.40;;;;;;;21.06;32.01;100215.06;4829062;29;105046;-78
2021/03/29 10:18:12;;;;;;;4.68;1.80;;;;;;;20.73;32.13;100204.72;4829274;29;103740;-79
2021/03/29 10:20:42;;;;;;;3.05;1.58;;;;;;;21.35;32.15;100207.88;4828993;29;102578;-77
2021/03/29 10:23:27;;;;;;;3.08;1.40;;;;;;;20.80;30.65;100203.16;4833263;29;102558;-77
2021/03/29 10:26:18;;;;;;;7.97;1.90;;;;;;;21.35;30.75;100205.19;4819905;29;106430;-87
2021/03/29 10:28:58;;;;;;;4.38;1.88;;;;;;;19.94;32.42;100203.72;4833335;29;103228;-92
2021/03/29 10:31:27;;;;;;;5.05;2.03;;;;;;;20.02;32.82;100198.53;4837169;29;103161;-89
2021/03/29 10:33:55;;;;;;;6.28;2.10;;;;;;;20.10;31.99;100196.03;4822035;29;103281;-87
2021/03/29 10:36:24;;;;;;;3.40;1.52;;;;;;;20.31;31.25;100192.47;4818455;29;103067;-84
2021/03/29 10:38:52;;;;;;;4.32;1.73;;;;;;;20.94;33.07;100186.63;4841233;29;103269;-86
2021/03/29 10:41:19;;;;;;;3.75;1.75;;;;;;;21.29;32.53;100188.78;4838333;29;102582;-83
2021/03/29 10:43:48;;;;;;;4.85;1.98;;;;;;;20.60;33.20;100196.09;4836284;29;103462;-79
2021/03/29 10:46:16;;;;;;;3.58;1.80;;;;;;;21.05;32.33;100191.84;4832815;29;105130;-82
2021/03/29 10:48:43;;;;;;;4.78;1.80;;;;;;;21.28;31.13;100193.31;4826224;29;105499;-83
2021/03/29 10:51:10;;;;;;;2.65;1.52;;;;;;;21.35;31.74;100191.75;4829572;29;103098;-81
2021/03/29 10:53:38;;;;;;;2.72;1.50;;;;;;;21.79;30.77;100187.53;4832639;29;103008;-83
2021/03/29 10:56:06;;;;;;;2.78;1.70;;;;;;;20.61;30.94;100181.66;4812024;29;104219;-87
2021/03/29 10:58:34;;;;;;;6.60;1.90;;;;;;;20.37;31.69;100184.72;4831574;29;103515;-81
2021/03/29 11:01:02;;;;;;;3.65;1.65;;;;;;;20.77;31.21;100176.59;4825032;29;102943;-80
2021/03/29 11:03:30;;;;;;;4.28;1.90;;;;;;;21.36;31.06;100179.16;4830359;29;102736;-86
2021/03/29 11:05:57;;;;;;;7.15;2.17;;;;;;;21.41;31.38;100182.25;4821764;29;103962;-84
2021/03/29 11:08:24;;;;;;;8.95;2.05;;;;;;;21.47;31.19;100180.84;4826733;29;103201;-83
2021/03/29 11:10:52;;;;;;;4.13;1.90;;;;;;;21.16;31.97;100178.34;4827524;29;103372;-85
2021/03/29 11:13:24;;;;;;;3.00;1.98;;;;;;;21.48;31.52;100171.75;4831828;29;102714;-88
2021/03/29 11:15:52;;;;;;;2.05;1.45;;;;;;;21.71;30.33;100162.38;4829248;29;104501;-80
2021/03/29 11:18:20;;;;;;;5.32;1.90;;;;;;;21.37;30.02;100170.94;4816438;29;105292;-84
2021/03/29 11:20:49;;;;;;;2.88;1.75;;;;;;;22.04;30.88;100169.06;4833770;29;102874;-78
2021/03/29 11:23:16;;;;;;;4.68;1.95;;;;;;;22.11;29.67;100170.16;4828669;29;103069;-82
2021/03/29 11:25:44;;;;;;;2.75;1.60;;;;;;;22.63;29.56;100160.50;4832421;29;102901;-83
2021/03/29 11:28:11;;;;;;;3.20;1.70;;;;;;;22.93;29.33;100152.09;4832215;29;103697;-91
2021/03/29 11:30:38;;;;;;;3.53;1.90;;;;;;;21.86;29.07;100166.28;4833678;29;103023;-83
2021/03/29 11:33:05;;;;;;;4.43;2.00;;;;;;;20.96;30.85;100156.94;4819652;29;103059;-81
2021/03/29 11:35:33;;;;;;;2.03;1.38;;;;;;;21.11;30.38;100159.09;4827948;29;104371;-81
2021/03/29 11:38:01;;;;;;;5.43;1.60;;;;;;;21.88;30.66;100153.56;4837431;29;104283;-73
2021/03/29 11:40:28;;;;;;;5.22;1.63;;;;;;;22.93;29.27;100152.09;4825168;29;103346;-78
2021/03/29 11:42:55;;;;;;;4.22;1.63;;;;;;;23.14;28.54;100157.16;4832139;29;103160;-77
2021/03/29 11:45:22;;;;;;;6.88;2.08;;;;;;;22.98;28.73;100155.16;4824788;29;104100;-77
2021/03/29 11:47:50;;;;;;;3.03;1.70;;;;;;;22.65;28.13;100153.16;4814483;29;103348;-74
2021/03/29 11:50:17;;;;;;;3.33;1.70;;;;;;;21.69;29.04;100148.22;4815194;29;102922;-80
2021/03/29 11:52:45;;;;;;;3.95;1.85;;;;;;;21.43;28.38;100147.16;4833583;29;103332;-79
2021/03/29 11:55:14;;;;;;;2.50;1.60;;;;;;;22.80;29.16;100140.84;4832791;29;103648;-76
2021/03/29 11:57:43;;;;;;;2.58;1.70;;;;;;;23.11;28.57;100134.03;4799423;29;103341;-82
2021/03/29 12:00:18;;;;;;;5.53;1.63;;;;;;;23.13;28.40;100137.41;4822461;29;104198;-82
2021/03/29 12:02:57;;;;;;;3.80;1.60;;;;;;;23.07;28.65;100132.69;4827581;29;104262;-80
2021/03/29 12:05:27;;;;;;;5.03;1.90;;;;;;;22.89;28.39;100129.13;4830446;29;103548;-79
2021/03/29 12:08:15;;;;;;;4.38;1.45;;;;;;;22.71;28.16;100136.41;4830298;29;104504;-78
2021/03/29 12:13:37;;;;;;;3.58;1.77;;;;;;;22.88;28.92;100133.69;4807621;29;103541;-77
2021/03/29 12:16:06;;;;;;;6.05;2.20;;;;;;;23.30;27.60;100128.47;4829119;29;103320;-78
2021/03/29 12:18:41;;;;;;;3.97;1.90;;;;;;;23.17;27.75;100130.72;4813055;29;105921;-82
2021/03/29 12:21:12;;;;;;;3.97;1.55;;;;;;;23.39;27.88;100132.94;4831230;29;103078;-80
2021/03/29 12:23:41;;;;;;;4.30;1.50;;;;;;;23.66;27.04;100130.06;4814037;29;103998;-79
2021/03/29 12:26:11;;;;;;;3.45;1.58;;;;;;;23.39;28.12;100127.53;4829512;29;103929;-79
2021/03/29 12:28:44;;;;;;;4.63;1.50;;;;;;;23.56;26.83;100129.34;4811527;29;103748;-80
2021/03/29 12:31:12;;;;;;;3.15;1.50;;;;;;;23.82;27.05;100134.72;4824618;29;103078;-79
2021/03/29 12:33:41;;;;;;;2.67;1.50;;;;;;;24.35;26.90;100120.97;4828291;29;103165;-77
2021/03/29 12:36:10;;;;;;;1.98;1.60;;;;;;;24.30;26.45;100123.31;4807096;29;105069;-78